createdAt,value
2022-09-10T00:01:40.649Z,13.70
2022-09-10T00:04:12.343Z,13.73
2022-09-10T00:06:41.626Z,13.23
2022-09-10T00:09:11.255Z,13.85
2022-09-10T00:11:41.754Z,14.38
2022-09-10T00:14:15.952Z,12.98
2022-09-10T00:16:44.449Z,15.15
2022-09-10T00:19:13.597Z,13.63
2022-09-10T00:21:42.167Z,15.23
2022-09-10T00:24:10.469Z,15.40
2022-09-10T00:26:40.057Z,15.05
2022-09-10T00:29:10.502Z,13.40
2022-09-10T00:31:40.954Z,11.70
2022-09-10T00:34:10.348Z,14.98
2022-09-10T00:36:40.857Z,12.90
2022-09-10T00:39:10.830Z,14.43
2022-09-10T00:41:40.924Z,13.75
2022-09-10T00:44:47.950Z,13.68
2022-09-10T00:47:22.868Z,13.70
2022-09-10T00:49:55.583Z,13.68
2022-09-10T00:52:24.537Z,13.60
2022-09-10T00:54:53.428Z,14.82
2022-09-10T00:57:24.204Z,14.02
2022-09-10T00:59:57.116Z,14.20
2022-09-10T01:02:27.121Z,14.25
2022-09-10T01:04:58.220Z,14.15
2022-09-10T01:07:29.182Z,14.18
2022-09-10T01:09:59.345Z,13.70
2022-09-10T01:12:57.869Z,13.63
2022-09-10T01:15:33.194Z,15.23
2022-09-10T01:18:16.058Z,13.70
2022-09-10T01:20:58.747Z,13.98
2022-09-10T01:24:03.520Z,13.07
2022-09-10T01:26:49.383Z,13.25
2022-09-10T01:29:24.910Z,15.00
2022-09-10T01:31:56.708Z,13.73
2022-09-10T01:34:30.603Z,14.70
2022-09-10T01:37:05.030Z,13.43
2022-09-10T01:39:34.190Z,13.27
2022-09-10T01:42:02.777Z,13.43
2022-09-10T01:44:48.277Z,12.45
2022-09-10T01:47:27.850Z,12.77
2022-09-10T01:50:09.034Z,13.57
2022-09-10T01:52:46.730Z,14.93
2022-09-10T01:55:27.333Z,13.90
2022-09-10T01:58:05.393Z,14.30
2022-09-10T02:00:37.403Z,13.45
2022-09-10T02:03:11.935Z,12.98
2022-09-10T02:05:42.932Z,13.23
2022-09-10T02:08:16.642Z,14.13
2022-09-10T02:10:52.797Z,13.38
2022-09-10T02:13:22.691Z,11.85
2022-09-10T02:15:53.104Z,12.98
2022-09-10T02:18:22.390Z,12.98
2022-09-10T02:20:53.434Z,11.13
2022-09-10T02:23:27.382Z,13.77
2022-09-10T02:25:56.052Z,12.07
2022-09-10T02:28:24.555Z,12.70
2022-09-10T02:30:55.102Z,12.95
2022-09-10T02:33:24.006Z,11.07
2022-09-10T02:35:53.799Z,12.55
2022-09-10T02:38:22.452Z,12.30
2022-09-10T02:40:50.984Z,11.02
2022-09-10T02:43:20.147Z,11.77
2022-09-10T02:45:48.562Z,11.73
2022-09-10T02:48:18.696Z,11.85
2022-09-10T02:50:47.278Z,11.05
2022-09-10T02:53:15.589Z,11.15
2022-09-10T02:55:46.258Z,12.18
2022-09-10T02:58:14.735Z,13.45
2022-09-10T03:00:43.127Z,11.10
2022-09-10T03:03:12.139Z,12.35
2022-09-10T03:05:42.358Z,11.98
2022-09-10T03:08:11.381Z,11.27
2022-09-10T03:10:39.903Z,11.68
2022-09-10T03:13:08.381Z,10.93
2022-09-10T03:15:37.052Z,11.88
2022-09-10T03:18:06.719Z,12.07
2022-09-10T03:20:35.082Z,13.45
2022-09-10T03:23:04.910Z,12.13
2022-09-10T03:25:33.898Z,12.48
2022-09-10T03:28:02.368Z,13.38
2022-09-10T03:30:30.792Z,13.80
2022-09-10T03:32:59.404Z,12.98
2022-09-10T03:35:27.782Z,13.65
2022-09-10T03:37:56.269Z,12.13
2022-09-10T03:40:26.322Z,13.95
2022-09-10T03:42:54.972Z,12.40
2022-09-10T03:45:23.297Z,13.98
2022-09-10T03:47:52.031Z,14.85
2022-09-10T03:50:21.125Z,12.40
2022-09-10T03:52:50.174Z,12.60
2022-09-10T03:55:19.059Z,12.02
2022-09-10T03:57:48.793Z,12.40
2022-09-10T04:00:17.757Z,13.48
2022-09-10T04:02:46.896Z,13.23
2022-09-10T04:05:16.088Z,11.35
2022-09-10T04:07:44.423Z,11.10
2022-09-10T04:10:13.408Z,12.50
2022-09-10T04:12:41.625Z,10.43
2022-09-10T04:15:13.349Z,11.05
2022-09-10T04:17:41.970Z,11.40
2022-09-10T04:20:12.002Z,11.82
2022-09-10T04:22:40.346Z,12.60
2022-09-10T04:25:09.608Z,11.15
2022-09-10T04:27:37.867Z,10.73
2022-09-10T04:30:07.397Z,10.10
2022-09-10T04:32:37.776Z,11.05
2022-09-10T04:35:07.118Z,11.05
2022-09-10T04:37:35.723Z,11.38
2022-09-10T04:40:04.948Z,11.65
2022-09-10T04:42:33.421Z,10.82
2022-09-10T04:45:01.838Z,11.05
2022-09-10T04:47:30.354Z,10.55
2022-09-10T04:50:00.166Z,10.75
2022-09-10T04:52:29.041Z,9.30
2022-09-10T04:54:57.661Z,10.35
2022-09-10T04:57:26.703Z,9.00
2022-09-10T04:59:55.667Z,9.15
2022-09-10T05:02:24.364Z,8.93
2022-09-10T05:04:52.698Z,10.02
2022-09-10T05:07:22.367Z,9.25
2022-09-10T05:09:50.775Z,9.77
2022-09-10T05:12:19.856Z,9.73
2022-09-10T05:14:49.090Z,10.10
2022-09-10T05:17:17.569Z,9.85
2022-09-10T05:19:45.973Z,9.52
2022-09-10T05:22:14.332Z,10.98
2022-09-10T05:24:44.279Z,9.63
2022-09-10T05:27:12.728Z,10.35
2022-09-10T05:29:41.134Z,11.00
2022-09-10T05:32:10.449Z,10.13
2022-09-10T05:34:39.482Z,10.60
2022-09-10T05:37:08.792Z,10.00
2022-09-10T05:39:37.285Z,10.20
2022-09-10T05:42:07.243Z,10.10
2022-09-10T05:44:35.722Z,10.63
2022-09-10T05:47:04.282Z,11.13
2022-09-10T05:49:32.616Z,10.05
2022-09-10T05:52:00.999Z,10.38
2022-09-10T05:54:29.613Z,9.02
2022-09-10T05:56:58.780Z,9.88
2022-09-10T05:59:29.896Z,10.02
2022-09-10T06:01:58.685Z,10.98
2022-09-10T06:04:27.428Z,9.93
2022-09-10T06:06:56.276Z,10.70
2022-09-10T06:09:25.160Z,11.05
2022-09-10T06:11:53.472Z,10.68
2022-09-10T06:14:22.012Z,10.65
2022-09-10T06:16:54.713Z,9.75
2022-09-10T06:19:23.191Z,11.13
2022-09-10T06:21:52.465Z,11.05
2022-09-10T06:24:20.857Z,10.63
2022-09-10T06:26:50.439Z,11.15
2022-09-10T06:29:19.846Z,11.80
2022-09-10T06:31:48.524Z,12.32
2022-09-10T06:34:19.145Z,11.90
2022-09-10T06:36:49.396Z,11.20
2022-09-10T06:39:17.933Z,11.70
2022-09-10T06:41:49.618Z,9.93
2022-09-10T06:44:18.528Z,12.18
2022-09-10T06:49:37.325Z,10.55
2022-09-10T06:52:05.717Z,12.45
2022-09-10T06:54:34.075Z,13.35
2022-09-10T06:57:04.585Z,12.48
2022-09-10T06:59:32.883Z,13.93
2022-09-10T07:02:02.322Z,12.15
2022-09-10T07:04:31.010Z,15.80
2022-09-10T07:07:00.964Z,14.60
2022-09-10T07:09:29.413Z,13.63
2022-09-10T07:11:59.255Z,13.15
2022-09-10T07:14:29.456Z,12.95
2022-09-10T07:16:59.514Z,12.40
2022-09-10T07:19:29.732Z,13.40
2022-09-10T07:21:58.089Z,14.38
2022-09-10T07:24:28.641Z,12.82
2022-09-10T07:26:57.920Z,13.40
2022-09-10T07:29:26.596Z,13.77
2022-09-10T07:31:55.218Z,14.48
2022-09-10T07:34:24.275Z,14.05
2022-09-10T07:36:52.568Z,11.63
2022-09-10T07:39:25.398Z,13.13
2022-09-10T07:41:55.609Z,14.15
2022-09-10T07:44:23.919Z,14.60
2022-09-10T07:46:53.494Z,12.07
2022-09-10T07:49:22.108Z,13.93
2022-09-10T07:51:59.085Z,14.30
2022-09-10T07:54:29.456Z,13.63
2022-09-10T07:56:59.297Z,13.90
2022-09-10T07:59:27.608Z,12.93
2022-09-10T08:01:56.206Z,13.40
2022-09-10T08:04:24.738Z,12.15
2022-09-10T08:06:53.118Z,11.88
2022-09-10T08:09:21.586Z,12.80
2022-09-10T08:11:50.025Z,13.70
2022-09-10T08:14:19.752Z,13.77
2022-09-10T08:16:48.259Z,13.50
2022-09-10T08:19:18.170Z,12.15
2022-09-10T08:21:47.688Z,12.50
2022-09-10T08:24:16.326Z,12.32
2022-09-10T08:26:44.816Z,11.70
2022-09-10T08:29:13.840Z,12.52
2022-09-10T08:31:44.263Z,11.50
2022-09-10T08:34:13.865Z,11.00
2022-09-10T08:36:42.309Z,11.93
2022-09-10T08:39:10.936Z,11.40
2022-09-10T08:41:48.117Z,10.98
2022-09-10T08:44:33.108Z,11.57
2022-09-10T08:47:08.528Z,9.48
2022-09-10T08:49:41.916Z,9.82
2022-09-10T08:52:20.624Z,10.98
2022-09-10T08:55:01.119Z,9.13
2022-09-10T08:57:34.101Z,9.98
2022-09-10T09:00:04.367Z,9.07
2022-09-10T09:02:49.173Z,8.20
2022-09-10T09:05:20.396Z,9.52
2022-09-10T09:07:49.904Z,8.30
2022-09-10T09:10:24.056Z,8.43
2022-09-10T09:13:05.598Z,9.25
2022-09-10T09:15:44.547Z,7.43
2022-09-10T09:18:24.458Z,8.02
2022-09-10T09:20:57.707Z,9.05
2022-09-10T09:23:34.025Z,8.30
2022-09-10T09:26:06.786Z,8.68
2022-09-10T09:28:39.689Z,8.95
2022-09-10T09:31:14.744Z,7.90
2022-09-10T09:33:46.483Z,7.57
2022-09-10T09:36:20.521Z,8.48
2022-09-10T09:38:50.957Z,7.00
2022-09-10T09:41:26.172Z,8.13
2022-09-10T09:43:58.858Z,7.97
2022-09-10T09:46:27.557Z,7.05
2022-09-10T09:49:00.179Z,8.48
2022-09-10T09:51:35.546Z,9.88
2022-09-10T09:54:46.461Z,10.23
2022-09-10T09:57:01.606Z,8.13
2022-09-10T09:59:31.882Z,9.25
2022-09-10T10:02:06.713Z,9.45
2022-09-10T10:04:41.505Z,9.38
2022-09-10T10:07:11.918Z,10.38
2022-09-10T10:09:44.653Z,8.93
2022-09-10T10:12:21.048Z,8.05
2022-09-10T10:14:49.943Z,9.57
2022-09-10T10:17:39.660Z,8.65
2022-09-10T10:20:12.354Z,9.25
2022-09-10T10:22:42.527Z,9.60
2022-09-10T10:25:36.306Z,8.82
2022-09-10T10:28:12.295Z,9.18
2022-09-10T10:30:41.725Z,9.40
2022-09-10T10:33:19.205Z,10.73
2022-09-10T10:35:51.660Z,9.70
2022-09-10T10:38:31.708Z,9.45
2022-09-10T10:41:37.932Z,9.50
2022-09-10T10:44:36.008Z,9.27
2022-09-10T10:47:34.509Z,8.85
2022-09-10T10:50:12.516Z,8.90
2022-09-10T10:52:51.275Z,9.35
2022-09-10T10:55:24.110Z,8.85
2022-09-10T10:58:11.269Z,10.43
2022-09-10T11:00:44.432Z,9.40
2022-09-10T11:03:19.420Z,9.93
2022-09-10T11:05:53.034Z,9.50
2022-09-10T11:08:28.234Z,9.02
2022-09-10T11:11:01.961Z,9.50
2022-09-10T11:13:36.025Z,9.20
2022-09-10T11:16:10.181Z,9.63
2022-09-10T11:18:44.200Z,9.90
2022-09-10T11:21:21.468Z,9.00
2022-09-10T11:23:58.169Z,9.32
2022-09-10T11:26:31.686Z,9.55
2022-09-10T11:29:13.235Z,9.65
2022-09-10T11:31:45.833Z,8.57
2022-09-10T11:34:22.762Z,8.73
2022-09-10T11:36:55.981Z,9.70
2022-09-10T11:39:34.437Z,9.05
2022-09-10T11:42:13.547Z,9.07
2022-09-10T11:44:55.448Z,8.07
2022-09-10T11:47:29.102Z,7.80
2022-09-10T11:50:02.798Z,8.10
2022-09-10T11:52:33.737Z,7.50
2022-09-10T11:55:04.904Z,7.78
2022-09-10T11:57:39.908Z,8.05
2022-09-10T12:00:15.834Z,8.00
2022-09-10T12:03:41.163Z,9.23
2022-09-10T12:06:15.646Z,7.50
2022-09-10T12:09:01.199Z,8.30
2022-09-10T12:11:39.108Z,7.30
2022-09-10T12:14:08.786Z,6.72
2022-09-10T12:16:43.619Z,6.03
2022-09-10T12:19:24.632Z,7.20
2022-09-10T12:21:59.032Z,7.03
2022-09-10T12:24:32.067Z,6.32
2022-09-10T12:27:03.234Z,6.85
2022-09-10T12:29:34.907Z,5.43
2022-09-10T12:32:36.596Z,6.65
2022-09-10T12:35:47.436Z,5.25
2022-09-10T12:38:50.077Z,5.63
2022-09-10T12:41:58.666Z,5.35
2022-09-10T12:44:56.265Z,5.60
2022-09-10T12:47:52.626Z,6.10
2022-09-10T12:50:31.792Z,6.05
2022-09-10T12:53:37.472Z,4.93
2022-09-10T12:56:43.415Z,5.43
2022-09-10T12:59:31.982Z,5.97
2022-09-10T13:02:02.226Z,5.55
2022-09-10T13:04:34.727Z,6.25
2022-09-10T13:07:06.708Z,6.60
2022-09-10T13:09:37.671Z,6.32
2022-09-10T13:12:21.605Z,6.35
2022-09-10T13:14:52.843Z,5.72
2022-09-10T13:17:42.230Z,6.60
2022-09-10T13:20:30.129Z,6.32
2022-09-10T13:23:01.478Z,6.15
2022-09-10T13:25:39.875Z,5.32
2022-09-10T13:28:47.937Z,6.05
2022-09-10T13:31:25.908Z,6.70
2022-09-10T13:34:20.415Z,6.88
2022-09-10T13:37:17.998Z,5.40
2022-09-10T13:40:13.032Z,6.82
2022-09-10T13:43:07.580Z,5.43
2022-09-10T13:45:40.686Z,5.50
2022-09-10T13:48:15.032Z,6.28
2022-09-10T13:50:52.941Z,5.93
2022-09-10T13:53:24.833Z,5.82
2022-09-10T13:56:00.966Z,5.93
2022-09-10T13:58:34.087Z,4.97
2022-09-10T14:01:04.005Z,5.53
2022-09-10T14:03:34.070Z,6.22
2022-09-10T14:06:07.621Z,5.47
2022-09-10T14:08:39.784Z,5.75
2022-09-10T14:11:17.353Z,6.97
2022-09-10T14:13:51.849Z,6.05
2022-09-10T14:16:29.960Z,5.30
2022-09-10T14:19:02.767Z,6.53
2022-09-10T14:21:33.579Z,6.22
2022-09-10T14:24:02.412Z,5.28
2022-09-10T14:26:33.794Z,6.45
2022-09-10T14:29:04.294Z,5.68
2022-09-10T14:31:36.875Z,5.78
2022-09-10T14:34:32.265Z,6.55
2022-09-10T14:37:03.223Z,5.88
2022-09-10T14:39:31.751Z,6.15
2022-09-10T14:42:24.042Z,6.72
2022-09-10T14:44:52.727Z,5.88
2022-09-10T14:47:32.436Z,5.78
2022-09-10T14:50:31.107Z,6.25
2022-09-10T14:53:01.106Z,6.15
2022-09-10T14:55:33.085Z,6.60
2022-09-10T14:58:01.343Z,6.15
2022-09-10T15:00:30.585Z,5.25
2022-09-10T15:02:59.151Z,5.10
2022-09-10T15:05:29.750Z,4.95
2022-09-10T15:07:58.135Z,4.80
2022-09-10T15:10:28.138Z,5.75
2022-09-10T15:12:56.660Z,5.03
2022-09-10T15:15:26.934Z,3.63
2022-09-10T15:17:55.489Z,4.20
2022-09-10T15:20:27.811Z,3.42
2022-09-10T15:22:57.023Z,3.85
2022-09-10T15:25:38.013Z,4.07
2022-09-10T15:28:07.983Z,3.97
2022-09-10T15:30:36.958Z,4.95
2022-09-10T15:33:05.898Z,4.50
2022-09-10T15:35:35.167Z,3.53
2022-09-10T15:38:03.861Z,3.53
2022-09-10T15:40:33.718Z,3.83
2022-09-10T15:43:02.289Z,2.97
2022-09-10T15:45:31.978Z,3.28
2022-09-10T15:48:00.363Z,3.05
2022-09-10T15:50:29.748Z,3.50
2022-09-10T15:52:58.175Z,3.47
2022-09-10T15:55:27.664Z,3.80
2022-09-10T15:57:58.134Z,3.15
2022-09-10T16:00:26.769Z,3.40
2022-09-10T16:02:55.086Z,3.10
2022-09-10T16:05:23.844Z,2.63
2022-09-10T16:07:52.191Z,2.92
2022-09-10T16:10:20.664Z,2.28
2022-09-10T16:12:49.209Z,2.83
2022-09-10T16:15:19.185Z,2.65
2022-09-10T16:17:47.571Z,2.95
2022-09-10T16:20:16.329Z,2.80
2022-09-10T16:22:44.965Z,2.55
2022-09-10T16:25:13.276Z,2.05
2022-09-10T16:27:43.414Z,2.25
2022-09-10T16:30:13.791Z,2.65
2022-09-10T16:32:43.600Z,2.47
2022-09-10T16:35:12.268Z,2.00
2022-09-10T16:37:40.776Z,2.42
2022-09-10T16:40:11.210Z,2.28
2022-09-10T16:42:39.847Z,2.88
2022-09-10T16:45:09.472Z,2.58
2022-09-10T16:47:38.232Z,2.30
2022-09-10T16:50:09.285Z,1.92
2022-09-10T16:52:37.653Z,2.60
2022-09-10T16:55:07.083Z,2.42
2022-09-10T16:57:35.702Z,2.22
2022-09-10T17:00:06.176Z,2.20
2022-09-10T17:02:35.221Z,1.75
2022-09-10T17:05:04.642Z,2.25
2022-09-10T17:07:34.487Z,2.10
2022-09-10T17:10:02.861Z,1.80
2022-09-10T17:12:31.445Z,1.85
2022-09-10T17:14:59.782Z,1.95
2022-09-10T17:17:28.359Z,1.98
2022-09-10T17:19:57.251Z,2.00
2022-09-10T17:22:27.010Z,2.38
2022-09-10T17:24:56.951Z,1.88
2022-09-10T17:27:27.729Z,1.38
2022-09-10T17:29:55.999Z,1.55
2022-09-10T17:32:24.408Z,2.28
2022-09-10T17:34:52.801Z,1.75
2022-09-10T17:37:21.196Z,1.30
2022-09-10T17:39:51.590Z,1.48
2022-09-10T17:42:21.521Z,2.10
2022-09-10T17:44:49.798Z,1.73
2022-09-10T17:47:18.270Z,1.67
2022-09-10T17:49:47.088Z,1.50
2022-09-10T17:52:15.751Z,1.80
2022-09-10T17:54:44.340Z,1.60
2022-09-10T17:57:13.438Z,2.20
2022-09-10T17:59:43.326Z,2.00
2022-09-10T18:02:15.418Z,1.60
2022-09-10T18:04:44.163Z,1.58
2022-09-10T18:07:13.030Z,1.75
2022-09-10T18:09:41.404Z,1.92
2022-09-10T18:12:09.897Z,1.83
2022-09-10T18:14:38.544Z,1.70
2022-09-10T18:17:08.244Z,1.83
2022-09-10T18:19:36.739Z,1.90
2022-09-10T18:22:05.770Z,1.85
2022-09-10T18:24:34.734Z,2.08
2022-09-10T18:27:05.300Z,2.15
2022-09-10T18:29:33.696Z,2.47
2022-09-10T18:32:02.476Z,2.30
2022-09-10T18:34:32.857Z,2.03
2022-09-10T18:37:02.759Z,1.60
2022-09-10T18:39:32.784Z,2.35
2022-09-10T18:42:02.321Z,3.08
2022-09-10T18:44:33.328Z,2.70
2022-09-10T18:47:02.192Z,2.75
2022-09-10T18:49:33.598Z,3.45
2022-09-10T18:52:02.283Z,2.90
2022-09-10T18:54:31.127Z,2.70
2022-09-10T18:56:59.752Z,2.70
2022-09-10T18:59:28.044Z,3.03
2022-09-10T19:01:56.832Z,2.95
2022-09-10T19:04:27.226Z,2.90
2022-09-10T19:06:58.367Z,3.90
2022-09-10T19:09:28.790Z,2.88
2022-09-10T19:11:59.207Z,3.35
2022-09-10T19:14:29.930Z,2.92
2022-09-10T19:17:00.142Z,3.45
2022-09-10T19:19:30.539Z,3.28
2022-09-10T19:22:02.761Z,3.08
2022-09-10T19:27:20.068Z,3.60
2022-09-10T19:29:49.769Z,3.83
2022-09-10T19:32:19.863Z,3.47
2022-09-10T19:34:50.719Z,3.67
2022-09-10T19:37:21.001Z,5.13
2022-09-10T19:39:50.149Z,4.13
2022-09-10T19:42:18.730Z,4.47
2022-09-10T19:44:48.151Z,4.10
2022-09-10T19:47:16.472Z,4.38
2022-09-10T19:49:44.865Z,4.25
2022-09-10T19:52:14.759Z,4.82
2022-09-10T19:54:44.950Z,4.20
2022-09-10T19:57:14.089Z,4.90
2022-09-10T19:59:42.469Z,4.78
2022-09-10T20:02:10.962Z,6.60
2022-09-10T20:04:39.602Z,6.60
2022-09-10T20:07:07.932Z,6.03
2022-09-10T20:09:39.790Z,4.90
2022-09-10T20:12:10.799Z,6.22
2022-09-10T20:14:39.218Z,6.05
2022-09-10T20:17:07.633Z,5.60
2022-09-10T20:19:36.149Z,6.10
2022-09-10T20:22:04.530Z,7.13
2022-09-10T20:24:33.099Z,6.38
2022-09-10T20:27:02.314Z,6.13
2022-09-10T20:29:32.893Z,5.45
2022-09-10T20:32:01.387Z,6.85
2022-09-10T20:34:31.297Z,6.18
2022-09-10T20:36:59.892Z,6.68
2022-09-10T20:39:28.309Z,6.65
2022-09-10T20:41:57.826Z,5.60
2022-09-10T20:44:26.298Z,6.85
2022-09-10T20:46:56.363Z,5.80
2022-09-10T20:49:24.854Z,5.45
2022-09-10T20:51:53.582Z,6.43
2022-09-10T20:54:21.939Z,5.30
2022-09-10T20:56:50.550Z,6.30
2022-09-10T20:59:23.239Z,6.38
2022-09-10T21:01:56.589Z,6.93
2022-09-10T21:04:26.027Z,6.47
2022-09-10T21:06:55.166Z,6.78
2022-09-10T21:09:23.571Z,6.40
2022-09-10T21:11:51.889Z,7.00
2022-09-10T21:14:20.527Z,5.78
2022-09-10T21:16:49.142Z,5.63
2022-09-10T21:19:18.844Z,6.15
2022-09-10T21:21:48.821Z,5.68
2022-09-10T21:24:22.496Z,6.30
2022-09-10T21:26:53.290Z,6.97
2022-09-10T21:29:23.075Z,6.95
2022-09-10T21:31:54.535Z,7.05
2022-09-10T21:34:24.530Z,6.13
2022-09-10T21:36:53.132Z,6.95
2022-09-10T21:39:21.833Z,6.55
2022-09-10T21:41:51.266Z,6.32
2022-09-10T21:44:22.334Z,6.18
2022-09-10T21:46:51.517Z,6.15
2022-09-10T21:49:21.339Z,6.78
2022-09-10T21:51:52.276Z,5.32
2022-09-10T21:54:22.541Z,6.50
2022-09-10T21:56:52.772Z,6.07
2022-09-10T21:59:22.252Z,6.82
2022-09-10T22:01:51.261Z,6.07
2022-09-10T22:04:23.120Z,6.53
2022-09-10T22:06:53.979Z,6.55
2022-09-10T22:09:22.895Z,5.93
2022-09-10T22:11:54.260Z,6.07
2022-09-10T22:14:24.485Z,6.32
2022-09-10T22:16:53.653Z,6.45
2022-09-10T22:19:23.691Z,5.15
2022-09-10T22:21:56.731Z,6.15
2022-09-10T22:24:26.193Z,7.03
2022-09-10T22:26:56.371Z,5.75
2022-09-10T22:29:25.208Z,6.57
2022-09-10T22:31:53.697Z,6.30
2022-09-10T22:34:22.580Z,6.25
2022-09-10T22:36:51.057Z,6.32
2022-09-10T22:39:21.840Z,6.68
2022-09-10T22:41:52.252Z,6.20
2022-09-10T22:44:21.004Z,6.28
2022-09-10T22:46:49.622Z,5.68
2022-09-10T22:49:19.840Z,5.63
2022-09-10T22:51:48.977Z,5.85
2022-09-10T22:54:17.550Z,6.30
2022-09-10T22:56:47.361Z,6.68
2022-09-10T22:59:16.636Z,5.43
2022-09-10T23:01:47.444Z,6.30
2022-09-10T23:04:16.594Z,5.90
2022-09-10T23:06:45.251Z,6.75
2022-09-10T23:09:15.302Z,5.97
2022-09-10T23:11:45.249Z,5.93
2022-09-10T23:14:17.883Z,5.95
2022-09-10T23:16:48.435Z,6.43
2022-09-10T23:19:19.584Z,6.18
2022-09-10T23:21:49.917Z,5.75
2022-09-10T23:24:20.593Z,6.72
2022-09-10T23:26:49.511Z,6.35
2022-09-10T23:29:23.024Z,5.88
2022-09-10T23:31:53.506Z,5.05
2022-09-10T23:34:22.604Z,4.97
2022-09-10T23:36:52.355Z,5.97
2022-09-10T23:39:22.930Z,6.20
2022-09-10T23:41:53.544Z,6.13
2022-09-10T23:44:24.324Z,5.10
2022-09-10T23:46:53.483Z,5.15
2022-09-10T23:49:21.725Z,6.22
2022-09-10T23:51:50.646Z,6.20
2022-09-10T23:54:19.329Z,5.70
2022-09-10T23:56:47.574Z,6.75
2022-09-10T23:59:16.368Z,5.68
